Hasvik current weather conditions

sailwx.info

Wind from 080 at 2 knots

Air temperature -8.0° C
Visibility: greater than 5.4 NM
Dewpoint -13.0° C
Present weather: Showers in the vicinity.

Last reported at 2020-Jan-26 06:20 UTC.
Time now 2020-Jan-26 08:47 UTC

Location: N 70°29' E 022°08'.
View on Google Maps.

See reports from other nearby stations

  
Tides and Currents Weather Stations Pressure Air Temp Water Temp Dewpoint Dewpoint Depression Visibility Wind Speed Wind Dir Waves Ship Positions
date/time (UTC)wind fromknots sea level pressurealtimeterstation pressurevisibilityair tempwater tempwave heightnotes
2020-Jan-26 06:20 080 2 5.4-8.0 Showers in the vicinity.
2020-Jan-26 05:50 090 4 5.4-7.0 Showers in the vicinity.
2020-Jan-26 05:20 080 4 5.4-6.0 Showers in the vicinity.
2020-Jan-26 04:50 090 2 5.4-6.0 Showers in the vicinity.
2020-Jan-26 04:20 040 6 5.4-5.0 Light low drifting snow.
2020-Jan-24 21:20 270 13 1.6-0.0 Light snow showers.
2020-Jan-24 20:50 270 13 5.4-0.0 Showers in the vicinity.
2020-Jan-24 20:20 270 11 2.2-1.0 Light snow showers.
2020-Jan-24 19:50 280 11 0.8-0.0 Snow showers.
2020-Jan-24 19:20 280 13 0.3-0.0 Snow showers.
2020-Jan-24 18:50 290 13 1.0-0.0 Snow showers.
2020-Jan-24 18:20 310 14 1.9-0.0 Light snow showers.
2020-Jan-24 17:50 260 7 5.4 1.0 Showers in the vicinity.
2020-Jan-24 17:43 260 8 1.3 1.0 Snow showers. Small hail/snow pellets.
2020-Jan-24 17:20 280 11 5.4 1.0 Showers in the vicinity.
2020-Jan-24 16:50 270 8 5.4 1.0 Showers in the vicinity.
2020-Jan-24 16:20 260 7 5.4 1.0 Showers in the vicinity.
2020-Jan-24 15:50 260 7 5.4 1.0 Showers in the vicinity.
2020-Jan-24 15:20 250 6 5.4 1.0 Showers in the vicinity.
2020-Jan-24 14:50 240 6 5.4 1.0 Light rain showers.
2020-Jan-24 14:20 240 6 5.4 1.0
2020-Jan-24 13:20 260 8 5.4 1.0
2020-Jan-24 09:59 260 8 5.4 2.0
2020-Jan-24 08:50 260 9 5.4 2.0
2020-Jan-24 08:20 260 9 5.4 2.0